createdAt,value
2023-01-09T00:00:22.448Z,0.13
2023-01-09T00:02:50.382Z,0.04
2023-01-09T00:05:19.804Z,0.07
2023-01-09T00:07:49.054Z,0.10
2023-01-09T00:10:17.008Z,0.15
2023-01-09T00:12:44.902Z,0.21
2023-01-09T00:15:13.237Z,0.29
2023-01-09T00:17:41.387Z,0.34
2023-01-09T00:20:12.122Z,0.36
2023-01-09T00:22:40.000Z,0.30
2023-01-09T00:25:10.512Z,0.37
2023-01-09T00:27:38.408Z,0.61
2023-01-09T00:30:07.311Z,0.70
2023-01-09T00:32:35.224Z,0.65
2023-01-09T00:35:03.471Z,0.66
2023-01-09T00:37:31.372Z,0.71
2023-01-09T00:39:59.270Z,0.71
2023-01-09T00:42:31.350Z,0.43
2023-01-09T00:45:02.641Z,0.47
2023-01-09T00:47:34.127Z,0.43
2023-01-09T00:50:06.653Z,0.42
2023-01-09T00:52:35.954Z,0.32
2023-01-09T00:55:04.024Z,0.43
2023-01-09T00:57:33.299Z,0.43
2023-01-09T01:00:01.487Z,0.43
2023-01-09T01:02:29.448Z,0.62
2023-01-09T01:05:14.800Z,0.75
2023-01-09T01:07:43.342Z,0.79
2023-01-09T01:10:13.956Z,0.92
2023-01-09T01:12:44.115Z,1.01
2023-01-09T01:15:12.938Z,0.92
2023-01-09T01:17:41.783Z,0.87
2023-01-09T01:20:12.401Z,1.09
2023-01-09T01:22:42.415Z,0.76
2023-01-09T01:25:11.433Z,0.67
2023-01-09T01:27:39.676Z,0.48
2023-01-09T01:30:11.129Z,0.58
2023-01-09T01:32:39.358Z,0.85
2023-01-09T01:35:07.681Z,1.00
2023-01-09T01:37:36.211Z,1.02
2023-01-09T01:40:05.511Z,0.86
2023-01-09T01:42:33.612Z,0.77
2023-01-09T01:45:05.161Z,0.61
2023-01-09T01:47:40.242Z,0.61
2023-01-09T01:50:11.687Z,0.97
2023-01-09T01:52:39.770Z,0.86
2023-01-09T01:55:09.762Z,1.01
2023-01-09T01:57:39.086Z,0.98
2023-01-09T02:00:08.699Z,1.18
2023-01-09T02:02:38.076Z,1.10
2023-01-09T02:05:06.942Z,1.08
2023-01-09T02:07:35.089Z,0.96
2023-01-09T02:10:03.131Z,0.93
2023-01-09T02:12:31.211Z,1.02
2023-01-09T02:15:03.352Z,0.88
2023-01-09T02:17:58.422Z,0.98
2023-01-09T02:20:43.329Z,0.95
2023-01-09T02:24:11.292Z,1.12
2023-01-09T02:27:08.640Z,1.32
2023-01-09T02:30:01.254Z,1.31
2023-01-09T02:32:38.705Z,1.19
2023-01-09T02:35:14.071Z,1.17
2023-01-09T02:37:46.290Z,1.21
2023-01-09T02:40:22.094Z,1.00
2023-01-09T02:42:50.181Z,0.82
2023-01-09T02:45:18.086Z,0.81
2023-01-09T02:47:47.985Z,0.69
2023-01-09T02:50:18.847Z,0.68
2023-01-09T02:53:11.518Z,0.75
2023-01-09T02:55:52.292Z,0.97
2023-01-09T02:58:32.176Z,0.93
2023-01-09T03:01:07.137Z,0.95
2023-01-09T03:03:39.926Z,0.87
2023-01-09T03:06:11.526Z,0.71
2023-01-09T03:08:42.027Z,0.62
2023-01-09T03:11:11.821Z,0.61
2023-01-09T03:13:44.701Z,0.66
2023-01-09T03:16:15.843Z,0.56
2023-01-09T03:18:45.399Z,0.56
2023-01-09T03:21:14.160Z,0.80
2023-01-09T03:23:52.619Z,0.91
2023-01-09T03:26:20.564Z,1.02
2023-01-09T03:28:48.804Z,1.09
2023-01-09T03:31:17.194Z,1.11
2023-01-09T03:33:46.540Z,1.13
2023-01-09T03:36:15.060Z,1.29
2023-01-09T03:38:43.072Z,1.23
2023-01-09T03:41:11.259Z,0.94
2023-01-09T03:43:39.182Z,0.94
2023-01-09T03:46:07.397Z,0.87
2023-01-09T03:48:35.329Z,1.03
2023-01-09T03:51:04.695Z,1.04
2023-01-09T03:53:32.661Z,0.98
2023-01-09T03:56:00.572Z,1.15
2023-01-09T03:58:28.664Z,0.95
2023-01-09T04:00:59.598Z,0.99
2023-01-09T04:03:27.661Z,1.11
2023-01-09T04:05:55.652Z,1.09
2023-01-09T04:08:25.057Z,1.07
2023-01-09T04:10:53.232Z,0.95
2023-01-09T04:13:21.119Z,1.17
2023-01-09T04:15:49.029Z,0.91
2023-01-09T04:18:17.238Z,0.97
2023-01-09T04:20:47.916Z,0.89
2023-01-09T04:23:15.978Z,1.07
2023-01-09T04:25:45.843Z,0.94
2023-01-09T04:28:13.772Z,1.03
2023-01-09T04:30:41.733Z,1.10
2023-01-09T04:33:09.651Z,1.17
2023-01-09T04:35:37.574Z,1.05
2023-01-09T04:38:05.487Z,0.94
2023-01-09T04:40:33.382Z,1.01
2023-01-09T04:43:02.665Z,0.92
2023-01-09T04:45:30.656Z,0.84
2023-01-09T04:47:58.544Z,0.87
2023-01-09T04:50:26.465Z,0.84
2023-01-09T04:52:54.345Z,0.94
2023-01-09T04:55:22.236Z,0.80
2023-01-09T04:57:50.287Z,0.83
2023-01-09T05:00:19.918Z,0.90
2023-01-09T05:02:47.836Z,0.91
2023-01-09T05:05:15.736Z,0.87
2023-01-09T05:07:43.685Z,0.71
2023-01-09T05:10:12.592Z,0.65
2023-01-09T05:12:41.251Z,0.71
2023-01-09T05:15:10.069Z,0.75
2023-01-09T05:17:39.324Z,0.80
2023-01-09T05:20:08.037Z,0.85
2023-01-09T05:22:35.929Z,0.81
2023-01-09T05:25:03.789Z,0.93
2023-01-09T05:27:31.639Z,1.21
2023-01-09T05:29:59.557Z,1.28
2023-01-09T05:32:27.427Z,1.24
2023-01-09T05:34:56.640Z,1.15
2023-01-09T05:37:24.509Z,0.95
2023-01-09T05:39:52.355Z,1.00
2023-01-09T05:42:20.196Z,1.00
2023-01-09T05:44:48.110Z,1.01
2023-01-09T05:47:16.041Z,0.88
2023-01-09T05:49:43.972Z,0.77
2023-01-09T05:52:13.171Z,0.75
2023-01-09T05:54:41.049Z,0.65
2023-01-09T05:57:08.905Z,0.59
2023-01-09T05:59:36.816Z,0.56
2023-01-09T06:02:04.732Z,0.68
2023-01-09T06:04:32.642Z,0.68
2023-01-09T06:07:00.538Z,0.58
2023-01-09T06:09:30.749Z,0.59
2023-01-09T06:11:58.690Z,0.60
2023-01-09T06:14:26.588Z,0.72
2023-01-09T06:16:54.412Z,0.67
2023-01-09T06:19:22.401Z,0.54
2023-01-09T06:21:50.249Z,0.53
2023-01-09T06:24:20.063Z,0.74
2023-01-09T06:26:49.318Z,0.84
2023-01-09T06:29:17.232Z,0.83
2023-01-09T06:31:45.162Z,0.75
2023-01-09T06:34:13.281Z,0.82
2023-01-09T06:36:41.116Z,0.66
2023-01-09T06:39:09.035Z,0.53
2023-01-09T06:41:37.223Z,0.53
2023-01-09T06:44:06.600Z,0.53
2023-01-09T06:46:34.525Z,0.57
2023-01-09T06:49:02.455Z,0.68
2023-01-09T06:51:30.337Z,0.86
2023-01-09T06:53:58.210Z,0.74
2023-01-09T06:56:26.135Z,0.86
2023-01-09T06:58:54.035Z,0.77
2023-01-09T07:01:23.818Z,0.79
2023-01-09T07:03:51.816Z,0.89
2023-01-09T07:06:20.162Z,0.84
2023-01-09T07:08:48.099Z,0.89
2023-01-09T07:11:15.998Z,0.91
2023-01-09T07:13:43.979Z,0.88
2023-01-09T07:16:11.970Z,0.90
2023-01-09T07:18:41.299Z,0.93
2023-01-09T07:21:09.225Z,0.93
2023-01-09T07:23:37.184Z,0.96
2023-01-09T07:26:05.373Z,1.06
2023-01-09T07:28:33.299Z,1.08
2023-01-09T07:31:04.514Z,1.10
2023-01-09T07:33:32.470Z,1.17
2023-01-09T07:36:01.757Z,1.16
2023-01-09T07:38:29.761Z,1.18
2023-01-09T07:40:58.198Z,1.25
2023-01-09T07:43:26.159Z,1.34
2023-01-09T07:45:54.118Z,1.39
2023-01-09T07:48:22.087Z,1.46
2023-01-09T07:50:49.971Z,1.48
2023-01-09T07:53:19.287Z,1.49
2023-01-09T07:55:47.188Z,1.50
2023-01-09T07:58:15.130Z,1.53
2023-01-09T08:00:43.069Z,1.60
2023-01-09T08:03:10.964Z,1.62
2023-01-09T08:05:38.912Z,1.65
2023-01-09T08:08:07.354Z,1.71
2023-01-09T08:10:36.634Z,1.76
2023-01-09T08:13:04.568Z,1.86
2023-01-09T08:15:33.612Z,1.89
2023-01-09T08:18:01.606Z,1.86
2023-01-09T08:20:29.513Z,1.88
2023-01-09T08:22:57.405Z,1.87
2023-01-09T08:25:25.657Z,1.89
2023-01-09T08:27:54.920Z,1.93
2023-01-09T08:30:23.098Z,1.88
2023-01-09T08:32:52.089Z,1.94
2023-01-09T08:35:20.148Z,1.91
2023-01-09T08:37:49.342Z,2.00
2023-01-09T08:40:18.248Z,2.01
2023-01-09T08:43:04.327Z,2.15
2023-01-09T08:45:51.388Z,2.11
2023-01-09T08:48:19.351Z,2.21
2023-01-09T08:50:47.572Z,2.21
2023-01-09T08:53:15.514Z,2.19
2023-01-09T08:55:43.561Z,2.25
2023-01-09T08:58:11.579Z,2.45
2023-01-09T09:00:40.881Z,2.82
2023-01-09T09:03:10.035Z,3.14
2023-01-09T09:05:38.055Z,3.23
2023-01-09T09:08:07.151Z,3.57
2023-01-09T09:10:35.171Z,3.88
2023-01-09T09:13:03.094Z,4.10
2023-01-09T09:15:30.970Z,4.21
2023-01-09T09:18:01.821Z,4.33
2023-01-09T09:20:32.024Z,4.41
2023-01-09T09:23:00.242Z,4.45
2023-01-09T09:25:28.601Z,4.51
2023-01-09T09:27:56.970Z,4.45
2023-01-09T09:30:25.789Z,4.47
2023-01-09T09:32:53.697Z,4.50
2023-01-09T09:35:23.268Z,4.50
2023-01-09T09:37:55.464Z,4.43
2023-01-09T09:40:33.086Z,4.29
2023-01-09T09:43:37.291Z,4.32
2023-01-09T09:46:09.512Z,4.41
2023-01-09T09:48:39.117Z,4.37
2023-01-09T09:51:45.215Z,4.41
2023-01-09T09:54:15.215Z,4.50
2023-01-09T09:56:47.785Z,4.50
2023-01-09T09:59:19.179Z,4.53
2023-01-09T10:01:53.144Z,4.56
2023-01-09T10:04:22.703Z,4.61
2023-01-09T10:06:54.480Z,4.69
2023-01-09T10:09:29.979Z,4.79
2023-01-09T10:12:01.313Z,4.80
2023-01-09T10:14:29.216Z,4.81
2023-01-09T10:17:27.548Z,4.84
2023-01-09T10:20:12.823Z,4.79
2023-01-09T10:22:47.361Z,4.86
2023-01-09T10:25:22.957Z,4.82
2023-01-09T10:28:02.035Z,4.89
2023-01-09T10:30:37.427Z,5.02
2023-01-09T10:33:18.442Z,5.15
2023-01-09T10:36:09.950Z,5.31
2023-01-09T10:38:41.801Z,5.41
2023-01-09T10:41:13.924Z,5.43
2023-01-09T10:43:46.222Z,5.48
2023-01-09T10:46:24.086Z,5.49
2023-01-09T10:48:55.782Z,5.57
2023-01-09T10:51:25.821Z,5.65
2023-01-09T10:53:56.426Z,5.60
2023-01-09T10:56:25.666Z,5.69
2023-01-09T10:58:55.355Z,5.62
2023-01-09T11:01:26.705Z,5.51
2023-01-09T11:03:54.664Z,5.41
2023-01-09T11:06:25.804Z,5.43
2023-01-09T11:08:57.631Z,5.45
2023-01-09T11:11:36.742Z,5.38
2023-01-09T11:14:14.689Z,5.29
2023-01-09T11:16:52.819Z,5.27
2023-01-09T11:19:20.916Z,5.24
2023-01-09T11:21:48.916Z,5.35
2023-01-09T11:24:30.922Z,5.40
2023-01-09T11:27:27.713Z,5.44
2023-01-09T11:30:22.557Z,5.46
2023-01-09T11:32:50.632Z,5.42
2023-01-09T11:35:21.590Z,5.36
2023-01-09T11:37:51.993Z,5.46
2023-01-09T11:40:22.347Z,5.45
2023-01-09T11:43:06.044Z,5.41
2023-01-09T11:45:35.733Z,5.39
2023-01-09T11:48:04.607Z,5.32
2023-01-09T11:50:33.014Z,5.35
2023-01-09T11:53:14.143Z,5.35
2023-01-09T11:55:43.981Z,5.36
2023-01-09T11:58:13.623Z,5.35
2023-01-09T12:00:49.444Z,5.32
2023-01-09T12:03:25.173Z,5.29
2023-01-09T12:05:57.122Z,5.17
2023-01-09T12:08:33.845Z,5.24
2023-01-09T12:11:18.907Z,5.28
2023-01-09T12:14:22.156Z,5.14
2023-01-09T12:16:59.865Z,5.27
2023-01-09T12:19:55.833Z,5.30
2023-01-09T12:22:31.482Z,5.36
2023-01-09T12:25:12.322Z,5.47
2023-01-09T12:27:55.815Z,5.66
2023-01-09T12:30:34.490Z,5.66
2023-01-09T12:33:16.758Z,5.67
2023-01-09T12:35:47.064Z,5.82
2023-01-09T12:38:46.295Z,5.73
2023-01-09T12:41:42.648Z,5.75
2023-01-09T12:44:34.290Z,5.83
2023-01-09T12:47:15.828Z,5.89
2023-01-09T12:49:49.372Z,6.13
2023-01-09T12:52:20.548Z,6.10
2023-01-09T12:54:52.598Z,6.11
2023-01-09T12:57:24.490Z,6.01
2023-01-09T12:59:55.786Z,6.01
2023-01-09T13:02:28.266Z,5.94
2023-01-09T13:05:00.085Z,6.00
2023-01-09T13:07:31.068Z,5.97
2023-01-09T13:10:01.514Z,5.92
2023-01-09T13:12:33.184Z,5.76
2023-01-09T13:15:05.617Z,5.64
2023-01-09T13:17:37.539Z,5.62
2023-01-09T13:20:10.467Z,5.55
2023-01-09T13:22:38.352Z,5.50
2023-01-09T13:25:32.092Z,5.51
2023-01-09T13:28:01.998Z,5.55
2023-01-09T13:30:45.375Z,5.56
2023-01-09T13:33:19.149Z,5.45
2023-01-09T13:35:54.891Z,5.54
2023-01-09T13:38:25.272Z,5.59
2023-01-09T13:41:26.928Z,5.58
2023-01-09T13:44:00.210Z,5.62
2023-01-09T13:46:43.344Z,5.59
2023-01-09T13:49:32.536Z,5.44
2023-01-09T13:52:02.758Z,5.52
2023-01-09T13:55:08.011Z,5.44
2023-01-09T13:57:36.570Z,5.48
2023-01-09T14:00:42.587Z,5.47
2023-01-09T14:03:20.696Z,5.52
2023-01-09T14:06:21.534Z,5.47
2023-01-09T14:08:51.151Z,5.48
2023-01-09T14:11:22.188Z,5.50
2023-01-09T14:14:09.758Z,5.40
2023-01-09T14:16:39.191Z,5.46
2023-01-09T14:19:23.937Z,5.37
2023-01-09T14:21:54.206Z,5.40
2023-01-09T14:24:28.353Z,5.38
2023-01-09T14:26:57.849Z,5.42
2023-01-09T14:29:47.490Z,5.27
2023-01-09T14:32:46.333Z,5.20
2023-01-09T14:35:19.086Z,5.08
2023-01-09T14:38:03.056Z,5.08
2023-01-09T14:40:32.012Z,5.09
2023-01-09T14:43:08.733Z,4.97
2023-01-09T14:45:37.922Z,5.03
2023-01-09T14:48:07.588Z,5.09
2023-01-09T14:50:38.804Z,5.11
2023-01-09T14:53:09.215Z,5.11
2023-01-09T14:55:44.263Z,5.05
2023-01-09T14:58:13.363Z,4.99
2023-01-09T15:00:49.830Z,4.99
2023-01-09T15:03:18.299Z,4.86
2023-01-09T15:05:48.275Z,4.98
2023-01-09T15:08:18.307Z,5.02
2023-01-09T15:10:47.385Z,5.02
2023-01-09T15:13:18.578Z,5.00
2023-01-09T15:15:47.912Z,4.98
2023-01-09T15:18:22.530Z,4.94
2023-01-09T15:20:56.645Z,4.99
2023-01-09T15:23:29.276Z,4.95
2023-01-09T15:25:57.646Z,5.03
2023-01-09T15:28:29.227Z,4.96
2023-01-09T15:31:01.093Z,4.97
2023-01-09T15:33:29.157Z,4.95
2023-01-09T15:36:02.585Z,4.88
2023-01-09T15:38:32.574Z,4.82
2023-01-09T15:41:02.744Z,4.80
2023-01-09T15:43:30.281Z,4.93
2023-01-09T15:45:58.532Z,4.91
2023-01-09T15:48:28.079Z,4.81
2023-01-09T15:50:59.992Z,4.80
2023-01-09T15:53:28.623Z,4.84
2023-01-09T15:56:13.864Z,4.80
2023-01-09T15:58:47.047Z,4.80
2023-01-09T16:01:36.021Z,4.71
2023-01-09T16:04:08.747Z,4.88
2023-01-09T16:06:39.547Z,4.86
2023-01-09T16:09:16.510Z,4.81
2023-01-09T16:11:48.548Z,4.81
2023-01-09T16:14:21.509Z,4.85
2023-01-09T16:16:50.301Z,4.95
2023-01-09T16:19:46.921Z,4.87
2023-01-09T16:22:22.596Z,4.90
2023-01-09T16:24:53.558Z,4.83
2023-01-09T16:27:27.221Z,4.78
2023-01-09T16:29:58.281Z,4.82
2023-01-09T16:32:29.040Z,4.79
2023-01-09T16:34:58.450Z,4.72
2023-01-09T16:37:28.063Z,4.95
2023-01-09T16:40:32.076Z,4.77
2023-01-09T16:43:00.515Z,4.62
2023-01-09T16:45:29.796Z,4.46
2023-01-09T16:47:58.176Z,4.62
2023-01-09T16:50:26.733Z,4.72
2023-01-09T16:52:56.370Z,4.68
2023-01-09T16:55:24.298Z,4.44
2023-01-09T16:57:52.213Z,4.51
2023-01-09T17:00:22.014Z,4.39
2023-01-09T17:02:49.954Z,4.63
2023-01-09T17:05:17.943Z,4.45
2023-01-09T17:07:45.935Z,4.54
2023-01-09T17:10:21.281Z,4.46
2023-01-09T17:12:49.856Z,4.53
2023-01-09T17:15:17.938Z,4.50
2023-01-09T17:17:46.114Z,4.44
2023-01-09T17:20:18.553Z,4.48
2023-01-09T17:22:46.467Z,4.30
2023-01-09T17:25:33.169Z,4.27
2023-01-09T17:28:20.563Z,4.22
2023-01-09T17:30:48.470Z,4.37
2023-01-09T17:33:17.075Z,4.42
2023-01-09T17:35:45.156Z,4.33
2023-01-09T17:38:14.417Z,4.49
2023-01-09T17:40:42.800Z,4.35
2023-01-09T17:43:12.666Z,4.42
2023-01-09T17:45:42.006Z,4.36
2023-01-09T17:48:15.221Z,4.42
2023-01-09T17:50:43.220Z,4.42
2023-01-09T17:53:11.180Z,4.38
2023-01-09T17:55:39.277Z,4.31
2023-01-09T17:58:07.157Z,4.49
2023-01-09T18:00:37.666Z,4.44
2023-01-09T18:03:07.585Z,4.34
2023-01-09T18:05:36.990Z,4.24
2023-01-09T18:08:05.870Z,4.28
2023-01-09T18:10:33.814Z,4.36
2023-01-09T18:13:01.734Z,4.39
2023-01-09T18:15:29.637Z,4.32
2023-01-09T18:17:58.940Z,4.37
2023-01-09T18:20:26.865Z,4.44
2023-01-09T18:22:54.814Z,4.43
2023-01-09T18:25:23.867Z,4.44
2023-01-09T18:27:51.794Z,4.32
2023-01-09T18:30:19.683Z,4.21
2023-01-09T18:32:47.577Z,4.12
2023-01-09T18:35:17.062Z,4.03
2023-01-09T18:37:45.025Z,4.08
2023-01-09T18:40:13.562Z,4.00
2023-01-09T18:42:42.036Z,4.04
2023-01-09T18:45:10.892Z,3.91
2023-01-09T18:47:38.890Z,3.88
2023-01-09T18:50:07.612Z,3.78
2023-01-09T18:52:36.929Z,3.66
2023-01-09T18:55:05.505Z,3.72
2023-01-09T18:57:33.463Z,3.68
2023-01-09T19:00:01.494Z,3.68
2023-01-09T19:02:29.501Z,3.81
2023-01-09T19:04:57.454Z,3.83
2023-01-09T19:07:25.398Z,3.94
2023-01-09T19:09:54.672Z,3.97
2023-01-09T19:12:22.598Z,3.82
2023-01-09T19:14:50.736Z,3.98
2023-01-09T19:17:18.648Z,4.05
2023-01-09T19:19:46.518Z,4.11
2023-01-09T19:22:15.190Z,4.01
2023-01-09T19:24:43.086Z,3.92
2023-01-09T19:27:12.333Z,3.86
2023-01-09T19:29:40.313Z,4.00
2023-01-09T19:32:08.578Z,3.90
2023-01-09T19:34:36.622Z,3.96
2023-01-09T19:37:04.635Z,3.99
2023-01-09T19:39:32.921Z,3.96
2023-01-09T19:42:00.801Z,3.95
2023-01-09T19:44:30.444Z,3.98
2023-01-09T19:46:58.414Z,4.02
2023-01-09T19:49:26.369Z,3.96
2023-01-09T19:51:55.874Z,3.99
2023-01-09T19:54:23.808Z,3.98
2023-01-09T19:56:51.761Z,3.92
2023-01-09T19:59:19.946Z,3.90
2023-01-09T20:01:49.688Z,3.95
2023-01-09T20:04:18.725Z,3.92
2023-01-09T20:06:47.943Z,3.95
2023-01-09T20:09:17.514Z,3.86
2023-01-09T20:11:45.725Z,3.76
2023-01-09T20:14:14.625Z,3.77
2023-01-09T20:16:43.330Z,3.80
2023-01-09T20:19:13.465Z,3.94
2023-01-09T20:21:41.398Z,3.93
2023-01-09T20:24:10.011Z,3.87
2023-01-09T20:26:39.538Z,3.90
2023-01-09T20:29:08.920Z,4.02
2023-01-09T20:31:37.299Z,4.03
2023-01-09T20:34:05.631Z,4.00
2023-01-09T20:36:34.953Z,4.05
2023-01-09T20:39:04.675Z,4.10
2023-01-09T20:41:32.583Z,4.18
2023-01-09T20:44:02.128Z,4.13
2023-01-09T20:46:31.364Z,3.93
2023-01-09T20:49:02.008Z,3.99
2023-01-09T20:51:30.991Z,4.07
2023-01-09T20:54:00.311Z,4.07
2023-01-09T20:56:29.240Z,4.14
2023-01-09T20:58:57.862Z,4.14
2023-01-09T21:01:26.286Z,4.18
2023-01-09T21:03:55.468Z,4.25
2023-01-09T21:06:24.952Z,4.20
2023-01-09T21:08:53.207Z,4.17
2023-01-09T21:11:22.879Z,4.27
2023-01-09T21:13:50.989Z,4.23
2023-01-09T21:16:21.502Z,4.33
2023-01-09T21:18:50.051Z,4.36
2023-01-09T21:21:20.088Z,4.31
2023-01-09T21:23:49.039Z,4.28
2023-01-09T21:26:17.997Z,4.23
2023-01-09T21:28:48.965Z,4.35
2023-01-09T21:31:18.293Z,4.40
2023-01-09T21:33:46.287Z,4.54
2023-01-09T21:36:14.388Z,4.46
2023-01-09T21:38:42.308Z,4.41
2023-01-09T21:41:27.767Z,4.37
2023-01-09T21:44:14.369Z,4.38
2023-01-09T21:46:56.056Z,4.30
2023-01-09T21:49:26.256Z,4.29
2023-01-09T21:51:54.783Z,4.43
2023-01-09T21:54:23.670Z,4.38
2023-01-09T21:56:51.663Z,4.39
2023-01-09T21:59:21.314Z,4.36
2023-01-09T22:01:50.020Z,4.30
2023-01-09T22:04:18.837Z,4.46
2023-01-09T22:06:46.985Z,4.52
2023-01-09T22:09:16.279Z,4.52
2023-01-09T22:11:44.770Z,4.57
2023-01-09T22:14:13.257Z,4.60
2023-01-09T22:16:43.480Z,4.63
2023-01-09T22:19:12.012Z,4.68
2023-01-09T22:21:40.209Z,4.63
2023-01-09T22:24:08.759Z,4.71
2023-01-09T22:26:36.689Z,4.68
2023-01-09T22:29:04.716Z,4.63
2023-01-09T22:31:33.520Z,4.65
2023-01-09T22:34:03.385Z,4.56
2023-01-09T22:36:31.953Z,4.60
2023-01-09T22:39:00.943Z,4.57
2023-01-09T22:41:30.563Z,4.61
2023-01-09T22:43:58.755Z,4.61
2023-01-09T22:46:27.009Z,4.65
2023-01-09T22:48:54.927Z,4.71
2023-01-09T22:51:24.411Z,4.62
2023-01-09T22:53:52.509Z,4.59
2023-01-09T22:56:22.493Z,4.55
2023-01-09T22:58:51.934Z,4.57
2023-01-09T23:01:20.348Z,4.58
2023-01-09T23:03:48.329Z,4.57
2023-01-09T23:06:18.018Z,4.53
2023-01-09T23:08:47.533Z,4.55
2023-01-09T23:11:17.130Z,4.59
2023-01-09T23:13:45.011Z,4.56
2023-01-09T23:16:12.996Z,4.60
2023-01-09T23:18:40.948Z,4.58
2023-01-09T23:21:09.259Z,4.66
2023-01-09T23:23:37.170Z,4.66
2023-01-09T23:26:06.413Z,4.59
2023-01-09T23:28:34.306Z,4.54
2023-01-09T23:31:02.207Z,4.58
2023-01-09T23:33:30.154Z,4.53
2023-01-09T23:35:58.563Z,4.52
2023-01-09T23:38:26.498Z,4.55
2023-01-09T23:40:57.195Z,4.49
2023-01-09T23:43:25.670Z,4.51
2023-01-09T23:45:53.766Z,4.59
2023-01-09T23:48:21.720Z,4.49
2023-01-09T23:50:50.620Z,4.55
2023-01-09T23:53:18.790Z,4.53
2023-01-09T23:55:46.836Z,4.59
2023-01-09T23:58:14.783Z,4.55
